createdAt,value
2018-08-03T00:00:05.505Z,930.67
2018-08-03T00:00:18.464Z,930.66
2018-08-03T00:00:30.998Z,930.62
2018-08-03T00:00:43.037Z,930.65
2018-08-03T00:00:55.505Z,930.63
2018-08-03T00:01:07.560Z,930.6
2018-08-03T00:01:20.059Z,930.62
2018-08-03T00:01:33.055Z,930.63
2018-08-03T00:01:45.541Z,930.62
2018-08-03T00:01:58.485Z,930.6
2018-08-03T00:02:10.976Z,930.6
2018-08-03T00:02:23.485Z,930.59
2018-08-03T00:02:36.457Z,930.6
2018-08-03T00:02:49.447Z,930.56
2018-08-03T00:03:01.976Z,930.56
2018-08-03T00:03:14.028Z,930.57
2018-08-03T00:03:26.528Z,930.59
2018-08-03T00:03:38.604Z,930.6
2018-08-03T00:03:51.049Z,930.56
2018-08-03T00:04:03.991Z,930.56
2018-08-03T00:04:16.557Z,930.56
2018-08-03T00:04:29.530Z,930.55
2018-08-03T00:04:42.505Z,930.54
2018-08-03T00:04:55.042Z,930.51
2018-08-03T00:05:07.591Z,930.51
2018-08-03T00:05:19.618Z,930.51
2018-08-03T00:05:32.659Z,930.53
2018-08-03T00:05:45.585Z,930.52
2018-08-03T00:05:57.650Z,930.52
2018-08-03T00:06:10.684Z,930.52
2018-08-03T00:06:23.160Z,930.53
2018-08-03T00:06:36.109Z,930.53
2018-08-03T00:06:49.139Z,930.52
2018-08-03T00:07:01.640Z,930.52
2018-08-03T00:07:13.693Z,930.52
2018-08-03T00:07:26.725Z,930.49
2018-08-03T00:07:39.214Z,930.49
2018-08-03T00:07:51.714Z,930.52
2018-08-03T00:08:03.708Z,930.5
2018-08-03T00:08:16.750Z,930.51
2018-08-03T00:08:30.827Z,930.5
2018-08-03T00:08:42.868Z,930.48
2018-08-03T00:08:55.424Z,930.49
2018-08-03T00:09:07.469Z,930.54
2018-08-03T00:09:20.423Z,930.52
2018-08-03T00:09:32.022Z,930.51
2018-08-03T00:09:44.987Z,930.49
2018-08-03T00:09:57.510Z,930.5
2018-08-03T00:10:09.529Z,930.49
2018-08-03T00:10:21.655Z,930.47
2018-08-03T00:10:33.739Z,930.51
2018-08-03T00:10:46.691Z,930.53
2018-08-03T00:10:59.676Z,930.51
2018-08-03T00:11:12.193Z,930.51
2018-08-03T00:11:25.159Z,930.47
2018-08-03T00:11:37.247Z,930.5
2018-08-03T00:11:49.741Z,930.55
2018-08-03T00:12:01.301Z,930.52
2018-08-03T00:12:13.755Z,930.5
2018-08-03T00:12:25.765Z,930.53
2018-08-03T00:12:38.332Z,930.51
2018-08-03T00:12:50.373Z,930.53
2018-08-03T00:13:02.398Z,930.52
2018-08-03T00:13:14.862Z,930.56
2018-08-03T00:13:26.943Z,930.53
2018-08-03T00:13:39.911Z,930.52
2018-08-03T00:13:52.437Z,930.5
2018-08-03T00:14:05.372Z,930.51
2018-08-03T00:14:17.861Z,930.54
2018-08-03T00:14:30.793Z,930.54
2018-08-03T00:14:43.295Z,930.53
2018-08-03T00:14:55.362Z,930.52
2018-08-03T00:15:07.829Z,930.59
2018-08-03T00:15:20.781Z,930.57
2018-08-03T00:15:33.262Z,930.59
2018-08-03T00:15:46.254Z,930.56
2018-08-03T00:15:59.259Z,930.58
2018-08-03T00:16:11.796Z,930.63
2018-08-03T00:16:24.725Z,930.59
2018-08-03T00:16:36.736Z,930.64
2018-08-03T00:16:49.732Z,930.63
2018-08-03T00:17:01.817Z,930.56
2018-08-03T00:17:14.291Z,930.63
2018-08-03T00:17:26.853Z,930.62
2018-08-03T00:17:39.852Z,930.61
2018-08-03T00:17:52.374Z,930.64
2018-08-03T00:18:05.371Z,930.63
2018-08-03T00:18:17.966Z,930.66
2018-08-03T00:18:30.510Z,930.65
2018-08-03T00:18:43.551Z,930.65
2018-08-03T00:18:56.053Z,930.65
2018-08-03T00:19:09.022Z,930.62
2018-08-03T00:19:21.996Z,930.59
2018-08-03T00:19:34.509Z,930.62
2018-08-03T00:19:46.600Z,930.6
2018-08-03T00:19:59.106Z,930.59
2018-08-03T00:20:11.170Z,930.57
2018-08-03T00:20:23.217Z,930.58
2018-08-03T00:20:35.730Z,930.6
2018-08-03T00:20:48.761Z,930.57
2018-08-03T00:21:01.753Z,930.59
2018-08-03T00:21:13.827Z,930.58
2018-08-03T00:21:26.812Z,930.62
2018-08-03T00:21:39.829Z,930.59
2018-08-03T00:21:51.911Z,930.56
2018-08-03T00:22:03.494Z,930.57
2018-08-03T00:22:15.513Z,930.55
2018-08-03T00:22:27.979Z,930.54
2018-08-03T00:22:40.458Z,930.56
2018-08-03T00:22:52.883Z,930.59
2018-08-03T00:23:04.886Z,930.57
2018-08-03T00:23:17.874Z,930.54
2018-08-03T00:23:31.215Z,930.53
2018-08-03T00:23:43.686Z,930.52
2018-08-03T00:23:56.668Z,930.51
2018-08-03T00:24:09.177Z,930.58
2018-08-03T00:24:22.249Z,930.51
2018-08-03T00:24:35.253Z,930.52
2018-08-03T00:24:47.266Z,930.55
2018-08-03T00:24:59.763Z,930.53
2018-08-03T00:25:12.741Z,930.53
2018-08-03T00:25:25.223Z,930.5
2018-08-03T00:25:37.704Z,930.51
2018-08-03T00:25:50.211Z,930.5
2018-08-03T00:26:02.795Z,930.55
2018-08-03T00:26:15.788Z,930.53
2018-08-03T00:26:28.786Z,930.51
2018-08-03T00:26:41.769Z,930.49
2018-08-03T00:26:54.724Z,930.5
2018-08-03T00:27:07.239Z,930.54
2018-08-03T00:27:19.294Z,930.5
2018-08-03T00:27:30.881Z,930.49
2018-08-03T00:27:43.377Z,930.51
2018-08-03T00:27:55.835Z,930.5
2018-08-03T00:28:08.343Z,930.5
2018-08-03T00:28:21.286Z,930.5
2018-08-03T00:28:34.239Z,930.5
2018-08-03T00:28:47.219Z,930.54
2018-08-03T00:29:00.166Z,930.51
2018-08-03T00:29:12.668Z,930.52
2018-08-03T00:29:24.718Z,930.49
2018-08-03T00:29:36.293Z,930.51
2018-08-03T00:29:49.310Z,930.52
2018-08-03T00:30:02.241Z,930.49
2018-08-03T00:30:14.309Z,930.51
2018-08-03T00:30:26.838Z,930.51
2018-08-03T00:30:39.738Z,930.51
2018-08-03T00:30:52.775Z,930.48
2018-08-03T00:31:05.763Z,930.55
2018-08-03T00:31:17.829Z,930.48
2018-08-03T00:31:30.377Z,930.48
2018-08-03T00:31:43.340Z,930.54
2018-08-03T00:31:55.876Z,930.53
2018-08-03T00:32:08.400Z,930.49
2018-08-03T00:32:21.335Z,930.53
2018-08-03T00:32:33.852Z,930.49
2018-08-03T00:32:46.756Z,930.53
2018-08-03T00:32:59.747Z,930.53
2018-08-03T00:33:12.266Z,930.53
2018-08-03T00:33:25.259Z,930.52
2018-08-03T00:33:37.733Z,930.53
2018-08-03T00:33:50.259Z,930.53
2018-08-03T00:34:03.208Z,930.47
2018-08-03T00:34:15.231Z,930.55
2018-08-03T00:34:26.807Z,930.53
2018-08-03T00:34:39.321Z,930.56
2018-08-03T00:34:52.330Z,930.54
2018-08-03T00:35:04.434Z,930.54
2018-08-03T00:35:17.416Z,930.52
2018-08-03T00:35:29.891Z,930.5
2018-08-03T00:35:42.438Z,930.54
2018-08-03T00:35:55.492Z,930.49
2018-08-03T00:36:07.620Z,930.53
2018-08-03T00:36:19.668Z,930.52
2018-08-03T00:36:32.646Z,930.55
2018-08-03T00:36:45.648Z,930.53
2018-08-03T00:36:57.716Z,930.54
2018-08-03T00:37:10.686Z,930.51
2018-08-03T00:37:23.643Z,930.53
2018-08-03T00:37:36.586Z,930.51
2018-08-03T00:37:49.561Z,930.53
2018-08-03T00:38:02.055Z,930.49
2018-08-03T00:38:14.177Z,930.52
2018-08-03T00:38:26.183Z,930.56
2018-08-03T00:38:39.314Z,930.55
2018-08-03T00:38:52.276Z,930.51
2018-08-03T00:39:04.732Z,930.54
2018-08-03T00:39:17.269Z,930.51
2018-08-03T00:39:30.269Z,930.52
2018-08-03T00:39:43.319Z,930.53
2018-08-03T00:39:55.393Z,930.5
2018-08-03T00:40:08.419Z,930.52
2018-08-03T00:40:20.891Z,930.54
2018-08-03T00:40:33.389Z,930.51
2018-08-03T00:40:45.922Z,930.52
2018-08-03T00:40:58.478Z,930.51
2018-08-03T00:41:11.052Z,930.5
2018-08-03T00:41:24.019Z,930.49
2018-08-03T00:41:36.533Z,930.52
2018-08-03T00:41:49.017Z,930.53
2018-08-03T00:42:02.064Z,930.53
2018-08-03T00:42:14.556Z,930.54
2018-08-03T00:42:26.098Z,930.5
2018-08-03T00:42:38.639Z,930.51
2018-08-03T00:42:51.168Z,930.52
2018-08-03T00:43:04.151Z,930.51
2018-08-03T00:43:16.636Z,930.55
2018-08-03T00:43:29.115Z,930.54
2018-08-03T00:43:40.713Z,930.53
2018-08-03T00:43:53.286Z,930.53
2018-08-03T00:44:06.361Z,930.53
2018-08-03T00:44:18.887Z,930.58
2018-08-03T00:44:31.344Z,930.57
2018-08-03T00:44:43.427Z,930.54
2018-08-03T00:44:56.369Z,930.55
2018-08-03T00:45:09.372Z,930.57
2018-08-03T00:45:21.845Z,930.56
2018-08-03T00:45:34.423Z,930.57
2018-08-03T00:45:47.422Z,930.54
2018-08-03T00:45:59.988Z,930.57
2018-08-03T00:46:12.962Z,930.58
2018-08-03T00:46:25.031Z,930.57
2018-08-03T00:46:37.539Z,930.6
2018-08-03T00:46:50.541Z,930.62
2018-08-03T00:47:02.148Z,930.6
2018-08-03T00:47:14.641Z,930.6
2018-08-03T00:47:27.138Z,930.6
2018-08-03T00:47:39.647Z,930.61
2018-08-03T00:47:52.199Z,930.59
2018-08-03T00:48:04.790Z,930.57
2018-08-03T00:48:17.720Z,930.57
2018-08-03T00:48:30.675Z,930.61
2018-08-03T00:48:43.191Z,930.58
2018-08-03T00:48:55.735Z,930.6
2018-08-03T00:49:08.704Z,930.6
2018-08-03T00:49:21.202Z,930.6
2018-08-03T00:49:34.272Z,930.57
2018-08-03T00:49:47.259Z,930.61
2018-08-03T00:49:59.782Z,930.6
2018-08-03T00:50:12.343Z,930.61
2018-08-03T00:50:25.291Z,930.59
2018-08-03T00:50:38.269Z,930.58
2018-08-03T00:50:50.794Z,930.6
2018-08-03T00:51:03.343Z,930.61
2018-08-03T00:51:15.892Z,930.59
2018-08-03T00:51:28.371Z,930.62
2018-08-03T00:51:41.309Z,930.66
2018-08-03T00:51:54.300Z,930.6
2018-08-03T00:52:06.773Z,930.58
2018-08-03T00:52:19.692Z,930.58
2018-08-03T00:52:32.161Z,930.57
2018-08-03T00:52:44.720Z,930.54
2018-08-03T00:52:57.725Z,930.6
2018-08-03T00:53:10.255Z,930.56
2018-08-03T00:53:23.184Z,930.53
2018-08-03T00:53:36.158Z,930.57
2018-08-03T00:53:49.655Z,930.58
2018-08-03T00:54:01.693Z,930.57
2018-08-03T00:54:13.754Z,930.6
2018-08-03T00:54:26.315Z,930.57
2018-08-03T00:54:39.312Z,930.58
2018-08-03T00:54:52.259Z,930.57
2018-08-03T00:55:04.763Z,930.55
2018-08-03T00:55:17.289Z,930.55
2018-08-03T00:55:29.786Z,930.54
2018-08-03T00:55:42.835Z,930.49
2018-08-03T00:55:55.368Z,930.49
2018-08-03T00:56:08.351Z,930.5
2018-08-03T00:56:21.318Z,930.53
2018-08-03T00:56:34.328Z,930.52
2018-08-03T00:56:46.331Z,930.5
2018-08-03T00:56:58.366Z,930.51
2018-08-03T00:57:10.884Z,930.49
2018-08-03T00:57:22.914Z,930.49
2018-08-03T00:57:35.417Z,930.46
2018-08-03T00:57:47.931Z,930.49
2018-08-03T00:58:00.803Z,930.45
2018-08-03T00:58:13.758Z,930.45
2018-08-03T00:58:25.788Z,930.46
2018-08-03T00:58:38.228Z,930.47
2018-08-03T00:58:50.751Z,930.43
2018-08-03T00:59:02.825Z,930.45
2018-08-03T00:59:15.796Z,930.43
2018-08-03T00:59:28.788Z,930.44
2018-08-03T00:59:41.801Z,930.44
2018-08-03T00:59:54.792Z,930.45
2018-08-03T01:00:06.827Z,930.42
2018-08-03T01:00:19.345Z,930.43
2018-08-03T01:00:31.816Z,930.43
2018-08-03T01:00:44.324Z,930.42
2018-08-03T01:00:57.349Z,930.44
2018-08-03T01:01:10.334Z,930.4
2018-08-03T01:01:22.866Z,930.45
2018-08-03T01:01:35.862Z,930.42
2018-08-03T01:01:48.414Z,930.41
2018-08-03T01:02:00.906Z,930.43
2018-08-03T01:02:13.509Z,930.42
2018-08-03T01:02:26.498Z,930.39
2018-08-03T01:02:39.548Z,930.45
2018-08-03T01:02:52.021Z,930.38
2018-08-03T01:03:04.979Z,930.47
2018-08-03T01:03:17.508Z,930.42
2018-08-03T01:03:29.623Z,930.41
2018-08-03T01:03:42.137Z,930.44
2018-08-03T01:03:55.148Z,930.39
2018-08-03T01:04:08.108Z,930.41
2018-08-03T01:04:21.105Z,930.41
2018-08-03T01:04:33.664Z,930.4
2018-08-03T01:04:46.631Z,930.39
2018-08-03T01:04:58.739Z,930.39
2018-08-03T01:05:11.757Z,930.41
2018-08-03T01:05:24.725Z,930.39
2018-08-03T01:05:37.193Z,930.42
2018-08-03T01:05:49.227Z,930.41
2018-08-03T01:06:01.277Z,930.4
2018-08-03T01:06:13.325Z,930.41
2018-08-03T01:06:25.807Z,930.42
2018-08-03T01:06:38.286Z,930.41
2018-08-03T01:06:50.789Z,930.38
2018-08-03T01:07:03.321Z,930.37
2018-08-03T01:07:15.797Z,930.38
2018-08-03T01:07:28.257Z,930.37
2018-08-03T01:07:41.254Z,930.4
2018-08-03T01:07:54.233Z,930.4
2018-08-03T01:08:06.711Z,930.41
2018-08-03T01:08:19.191Z,930.4
2018-08-03T01:08:32.150Z,930.4
2018-08-03T01:08:45.114Z,930.41
2018-08-03T01:08:58.716Z,930.41
2018-08-03T01:09:10.760Z,930.43
2018-08-03T01:09:23.735Z,930.46
2018-08-03T01:09:36.768Z,930.39
2018-08-03T01:09:49.757Z,930.45
2018-08-03T01:10:02.275Z,930.41
2018-08-03T01:10:14.341Z,930.45
2018-08-03T01:10:27.350Z,930.46
2018-08-03T01:10:40.260Z,930.45
2018-08-03T01:10:53.197Z,930.49
2018-08-03T01:11:06.111Z,930.47
2018-08-03T01:11:19.138Z,930.46
2018-08-03T01:11:31.625Z,930.45
2018-08-03T01:11:44.126Z,930.49
2018-08-03T01:11:57.159Z,930.5
2018-08-03T01:12:09.211Z,930.45
2018-08-03T01:12:21.740Z,930.5
2018-08-03T01:12:34.685Z,930.49
2018-08-03T01:12:47.193Z,930.48
2018-08-03T01:13:00.128Z,930.48
2018-08-03T01:13:12.673Z,930.49
2018-08-03T01:13:25.696Z,930.47
2018-08-03T01:13:37.766Z,930.48
2018-08-03T01:13:50.821Z,930.52
2018-08-03T01:14:03.296Z,930.49
2018-08-03T01:14:16.282Z,930.46
2018-08-03T01:14:29.235Z,930.45
2018-08-03T01:14:41.243Z,930.48
2018-08-03T01:14:53.754Z,930.47
2018-08-03T01:15:06.697Z,930.44
2018-08-03T01:15:18.751Z,930.48
2018-08-03T01:15:31.188Z,930.45
2018-08-03T01:15:44.175Z,930.46
2018-08-03T01:15:57.141Z,930.47
2018-08-03T01:16:09.555Z,930.45
2018-08-03T01:16:22.555Z,930.41
2018-08-03T01:16:34.141Z,930.43
2018-08-03T01:16:47.192Z,930.47
2018-08-03T01:17:00.145Z,930.49
2018-08-03T01:17:12.748Z,930.48
2018-08-03T01:17:24.921Z,930.48
2018-08-03T01:17:37.864Z,930.46
2018-08-03T01:17:50.888Z,930.47
2018-08-03T01:18:03.980Z,930.49
2018-08-03T01:18:16.465Z,930.46
2018-08-03T01:18:29.494Z,930.5
2018-08-03T01:18:42.010Z,930.52
2018-08-03T01:18:54.969Z,930.49
2018-08-03T01:19:07.455Z,930.5
2018-08-03T01:19:20.438Z,930.5
2018-08-03T01:19:32.512Z,930.49
2018-08-03T01:19:45.023Z,930.45
2018-08-03T01:19:58.004Z,930.48
2018-08-03T01:20:10.561Z,930.48
2018-08-03T01:20:23.091Z,930.47
2018-08-03T01:20:36.050Z,930.46
2018-08-03T01:20:49.073Z,930.46
2018-08-03T01:21:02.082Z,930.46
2018-08-03T01:21:14.087Z,930.47
2018-08-03T01:21:26.584Z,930.48
2018-08-03T01:21:39.134Z,930.49
2018-08-03T01:21:52.124Z,930.46
2018-08-03T01:22:04.182Z,930.48
2018-08-03T01:22:17.184Z,930.47
2018-08-03T01:22:29.728Z,930.47
2018-08-03T01:22:42.243Z,930.5
2018-08-03T01:22:54.366Z,930.5
2018-08-03T01:23:06.375Z,930.5
2018-08-03T01:23:18.455Z,930.48
2018-08-03T01:23:31.395Z,930.5
2018-08-03T01:23:44.411Z,930.46
2018-08-03T01:23:57.826Z,930.45
2018-08-03T01:24:10.312Z,930.44
2018-08-03T01:24:22.819Z,930.47
2018-08-03T01:24:35.290Z,930.48
2018-08-03T01:24:48.245Z,930.43
2018-08-03T01:25:01.267Z,930.42
2018-08-03T01:25:13.757Z,930.43
2018-08-03T01:25:26.272Z,930.45
2018-08-03T01:25:38.773Z,930.43
2018-08-03T01:25:51.732Z,930.44
2018-08-03T01:26:04.685Z,930.45
2018-08-03T01:26:17.672Z,930.49
2018-08-03T01:26:30.656Z,930.49
2018-08-03T01:26:43.140Z,930.47
2018-08-03T01:26:55.196Z,930.5
2018-08-03T01:27:08.156Z,930.44
2018-08-03T01:27:21.106Z,930.47
2018-08-03T01:27:34.285Z,930.5
2018-08-03T01:27:47.262Z,930.51
2018-08-03T01:28:00.213Z,930.54
2018-08-03T01:28:13.132Z,930.49
2018-08-03T01:28:25.156Z,930.5
2018-08-03T01:28:38.098Z,930.54
2018-08-03T01:28:50.594Z,930.54
2018-08-03T01:29:03.129Z,930.49
2018-08-03T01:29:16.221Z,930.52
2018-08-03T01:29:28.777Z,930.54
2018-08-03T01:29:41.710Z,930.54
2018-08-03T01:29:54.730Z,930.52
2018-08-03T01:30:07.257Z,930.51
2018-08-03T01:30:20.190Z,930.5
2018-08-03T01:30:32.263Z,930.54
2018-08-03T01:30:43.851Z,930.52
2018-08-03T01:30:56.854Z,930.48
2018-08-03T01:31:08.449Z,930.51
2018-08-03T01:31:20.924Z,930.49
2018-08-03T01:31:33.899Z,930.47
2018-08-03T01:31:46.393Z,930.46
2018-08-03T01:31:59.345Z,930.48
2018-08-03T01:32:11.824Z,930.44
2018-08-03T01:32:24.816Z,930.5
2018-08-03T01:32:37.394Z,930.49
2018-08-03T01:32:49.959Z,930.51
2018-08-03T01:33:02.088Z,930.48
2018-08-03T01:33:15.101Z,930.46
2018-08-03T01:33:28.067Z,930.48
2018-08-03T01:33:41.084Z,930.55
2018-08-03T01:33:53.561Z,930.49
2018-08-03T01:34:06.055Z,930.53
2018-08-03T01:34:18.589Z,930.47
2018-08-03T01:34:30.604Z,930.51
2018-08-03T01:34:43.591Z,930.51
2018-08-03T01:34:55.652Z,930.49
2018-08-03T01:35:08.695Z,930.51
2018-08-03T01:35:21.682Z,930.51
2018-08-03T01:35:34.146Z,930.52
2018-08-03T01:35:46.207Z,930.5
2018-08-03T01:35:59.156Z,930.45
2018-08-03T01:36:11.689Z,930.46
2018-08-03T01:36:24.163Z,930.44
2018-08-03T01:36:37.105Z,930.45
2018-08-03T01:36:49.579Z,930.44
2018-08-03T01:37:01.717Z,930.47
2018-08-03T01:37:13.297Z,930.46
2018-08-03T01:37:26.380Z,930.44
2018-08-03T01:37:38.862Z,930.44
2018-08-03T01:37:52.019Z,930.43
2018-08-03T01:38:04.689Z,930.45
2018-08-03T01:38:17.250Z,930.42
2018-08-03T01:38:29.761Z,930.46
2018-08-03T01:38:42.318Z,930.38
2018-08-03T01:38:54.802Z,930.41
2018-08-03T01:39:08.537Z,930.4
2018-08-03T01:39:21.080Z,930.4
2018-08-03T01:39:33.555Z,930.36
2018-08-03T01:39:46.590Z,930.43
2018-08-03T01:39:58.659Z,930.4
2018-08-03T01:40:11.213Z,930.36
2018-08-03T01:40:24.192Z,930.39
2018-08-03T01:40:37.158Z,930.36
2018-08-03T01:40:50.121Z,930.35
2018-08-03T01:41:02.617Z,930.34
2018-08-03T01:41:15.141Z,930.34
2018-08-03T01:41:28.122Z,930.34
2018-08-03T01:41:40.643Z,930.34
2018-08-03T01:41:53.594Z,930.31
2018-08-03T01:42:05.651Z,930.33
2018-08-03T01:42:18.634Z,930.3
2018-08-03T01:42:31.615Z,930.3
2018-08-03T01:42:44.141Z,930.28
2018-08-03T01:42:56.181Z,930.26
2018-08-03T01:43:08.697Z,930.28
2018-08-03T01:43:21.717Z,930.32
2018-08-03T01:43:34.286Z,930.26
2018-08-03T01:43:46.381Z,930.28
2018-08-03T01:43:58.441Z,930.28
2018-08-03T01:44:11.421Z,930.29
2018-08-03T01:44:23.925Z,930.29
2018-08-03T01:44:36.916Z,930.27
2018-08-03T01:44:48.520Z,930.28
2018-08-03T01:45:01.533Z,930.28
2018-08-03T01:45:13.578Z,930.28
2018-08-03T01:45:26.605Z,930.29
2018-08-03T01:45:39.174Z,930.29
2018-08-03T01:45:51.741Z,930.27
2018-08-03T01:46:04.752Z,930.26
2018-08-03T01:46:17.296Z,930.28
2018-08-03T01:46:29.790Z,930.26
2018-08-03T01:46:42.785Z,930.27
2018-08-03T01:46:55.261Z,930.25
2018-08-03T01:47:07.819Z,930.22
2018-08-03T01:47:20.803Z,930.25
2018-08-03T01:47:33.346Z,930.23
2018-08-03T01:47:45.847Z,930.24
2018-08-03T01:47:58.768Z,930.19
2018-08-03T01:48:10.383Z,930.23
2018-08-03T01:48:22.907Z,930.29
2018-08-03T01:48:35.385Z,930.25
2018-08-03T01:48:47.876Z,930.19
2018-08-03T01:49:00.943Z,930.23
2018-08-03T01:49:13.479Z,930.17
2018-08-03T01:49:26.434Z,930.17
2018-08-03T01:49:38.922Z,930.2
2018-08-03T01:49:51.932Z,930.21
2018-08-03T01:50:04.929Z,930.23
2018-08-03T01:50:17.966Z,930.2
2018-08-03T01:50:30.468Z,930.22
2018-08-03T01:50:43.504Z,930.2
2018-08-03T01:50:56.053Z,930.19
2018-08-03T01:51:08.554Z,930.2
2018-08-03T01:51:20.640Z,930.23
2018-08-03T01:51:33.234Z,930.19
2018-08-03T01:51:45.717Z,930.18
2018-08-03T01:51:58.217Z,930.2
2018-08-03T01:52:11.187Z,930.18
2018-08-03T01:52:23.709Z,930.15
2018-08-03T01:52:36.697Z,930.16
2018-08-03T01:52:49.697Z,930.18
2018-08-03T01:53:01.724Z,930.19
2018-08-03T01:53:14.305Z,930.17
2018-08-03T01:53:26.390Z,930.17
2018-08-03T01:53:39.419Z,930.16
2018-08-03T01:53:51.914Z,930.13
2018-08-03T01:54:04.351Z,930.21
2018-08-03T01:54:16.884Z,930.15
2018-08-03T01:54:29.930Z,930.16
2018-08-03T01:54:42.876Z,930.14
2018-08-03T01:54:55.894Z,930.12
2018-08-03T01:55:08.461Z,930.13
2018-08-03T01:55:21.013Z,930.15
2018-08-03T01:55:33.527Z,930.14
2018-08-03T01:55:46.503Z,930.15
2018-08-03T01:55:58.955Z,930.14
2018-08-03T01:56:10.937Z,930.13
2018-08-03T01:56:23.941Z,930.19
2018-08-03T01:56:36.924Z,930.15
2018-08-03T01:56:49.904Z,930.2
2018-08-03T01:57:02.442Z,930.19
2018-08-03T01:57:15.420Z,930.17
2018-08-03T01:57:28.416Z,930.17
2018-08-03T01:57:41.366Z,930.22
2018-08-03T01:57:53.873Z,930.2
2018-08-03T01:58:06.412Z,930.21
2018-08-03T01:58:19.345Z,930.16
2018-08-03T01:58:31.866Z,930.17
2018-08-03T01:58:44.854Z,930.15
2018-08-03T01:58:57.852Z,930.16
2018-08-03T01:59:11.200Z,930.18
2018-08-03T01:59:24.209Z,930.18
2018-08-03T01:59:37.160Z,930.17
2018-08-03T01:59:49.206Z,930.13
2018-08-03T02:00:02.197Z,930.11
2018-08-03T02:00:15.108Z,930.15
2018-08-03T02:00:27.165Z,930.15
2018-08-03T02:00:40.126Z,930.11
2018-08-03T02:00:52.696Z,930.15
2018-08-03T02:01:05.668Z,930.13
2018-08-03T02:01:18.647Z,930.11
2018-08-03T02:01:31.218Z,930.12
2018-08-03T02:01:44.153Z,930.11
2018-08-03T02:01:57.146Z,930.08
2018-08-03T02:02:10.116Z,930.11
2018-08-03T02:02:22.672Z,930.1
2018-08-03T02:02:35.170Z,930.1
2018-08-03T02:02:48.166Z,930.13
2018-08-03T02:03:00.277Z,930.1
2018-08-03T02:03:12.396Z,930.13
2018-08-03T02:03:25.653Z,930.11
2018-08-03T02:03:38.189Z,930.1
2018-08-03T02:03:51.161Z,930.12
2018-08-03T02:04:02.740Z,930.08
2018-08-03T02:04:15.758Z,930.09
2018-08-03T02:04:27.819Z,930.09
2018-08-03T02:04:40.350Z,930.1
2018-08-03T02:04:52.376Z,930.09
2018-08-03T02:05:05.451Z,930.12
2018-08-03T02:05:18.036Z,930.06
2018-08-03T02:05:31.048Z,930.06
2018-08-03T02:05:44.038Z,930.06
2018-08-03T02:05:56.069Z,930.08
2018-08-03T02:06:08.629Z,930.1
2018-08-03T02:06:20.645Z,930.07
2018-08-03T02:06:33.635Z,930.1
2018-08-03T02:06:46.090Z,930.1
2018-08-03T02:06:58.590Z,930.09
2018-08-03T02:07:11.090Z,930.05
2018-08-03T02:07:23.631Z,930.07
2018-08-03T02:07:36.580Z,930.07
2018-08-03T02:07:49.541Z,930.02
2018-08-03T02:08:02.071Z,930.07
2018-08-03T02:08:15.084Z,930.04
2018-08-03T02:08:27.581Z,930.02
2018-08-03T02:08:40.517Z,930.05
2018-08-03T02:08:53.500Z,930.02
2018-08-03T02:09:06.011Z,930.05
2018-08-03T02:09:18.889Z,930.02
2018-08-03T02:09:30.991Z,929.99
2018-08-03T02:09:44.069Z,930.05
2018-08-03T02:09:56.598Z,929.99
2018-08-03T02:10:08.652Z,929.99
2018-08-03T02:10:20.674Z,929.99
2018-08-03T02:10:33.266Z,930.01
2018-08-03T02:10:45.746Z,929.99
2018-08-03T02:10:57.813Z,930.01
2018-08-03T02:11:10.344Z,930.02
2018-08-03T02:11:22.868Z,930
2018-08-03T02:11:35.390Z,930.01
2018-08-03T02:11:48.375Z,930
2018-08-03T02:12:00.873Z,930
2018-08-03T02:12:13.410Z,930.02
2018-08-03T02:12:25.939Z,930.03
2018-08-03T02:12:38.941Z,930.03
2018-08-03T02:12:51.493Z,930.04
2018-08-03T02:13:04.490Z,930.06
2018-08-03T02:13:17.042Z,930.07
2018-08-03T02:13:29.544Z,930
2018-08-03T02:13:42.110Z,930.07
2018-08-03T02:13:54.642Z,930.05
2018-08-03T02:14:07.642Z,930.06
2018-08-03T02:14:20.592Z,930.07
2018-08-03T02:14:33.056Z,930.04
2018-08-03T02:14:45.591Z,930.07
2018-08-03T02:14:58.080Z,930.02
2018-08-03T02:15:11.105Z,930.03
2018-08-03T02:15:23.636Z,930.01
2018-08-03T02:15:36.192Z,930.03
2018-08-03T02:15:49.223Z,930.03
2018-08-03T02:16:01.767Z,930.04
2018-08-03T02:16:13.806Z,930.02
2018-08-03T02:16:26.797Z,930.03
2018-08-03T02:16:39.329Z,930.02
2018-08-03T02:16:51.392Z,930.03
2018-08-03T02:17:04.374Z,930.01
2018-08-03T02:17:17.364Z,930.01
2018-08-03T02:17:30.354Z,930.01
2018-08-03T02:17:42.935Z,929.98
2018-08-03T02:17:55.912Z,930.01
2018-08-03T02:18:08.466Z,929.99
2018-08-03T02:18:20.922Z,930.05
2018-08-03T02:18:33.872Z,929.99
2018-08-03T02:18:46.861Z,930.06
2018-08-03T02:18:59.377Z,930.02
2018-08-03T02:19:11.917Z,930
2018-08-03T02:19:24.461Z,930.04
2018-08-03T02:19:37.004Z,930.02
2018-08-03T02:19:48.594Z,930.04
2018-08-03T02:20:01.627Z,930.03
2018-08-03T02:20:14.583Z,930.01
2018-08-03T02:20:27.469Z,929.96
2018-08-03T02:20:40.013Z,929.98
2018-08-03T02:20:52.553Z,929.99
2018-08-03T02:21:04.592Z,930.01
2018-08-03T02:21:17.129Z,929.99
2018-08-03T02:21:30.151Z,930.01
2018-08-03T02:21:42.644Z,930.02
2018-08-03T02:21:55.107Z,930.03
2018-08-03T02:22:08.108Z,929.94
2018-08-03T02:22:21.081Z,930.03
2018-08-03T02:22:34.040Z,930.03
2018-08-03T02:22:47.068Z,930
2018-08-03T02:22:59.108Z,930.02
2018-08-03T02:23:11.589Z,930.02
2018-08-03T02:23:24.080Z,930.05
2018-08-03T02:23:36.607Z,930.08
2018-08-03T02:23:49.063Z,930.04
2018-08-03T02:24:02.048Z,930.04
2018-08-03T02:24:14.523Z,930.04
2018-08-03T02:24:27.196Z,930.05
2018-08-03T02:24:39.707Z,930.06
2018-08-03T02:24:52.199Z,930.04
2018-08-03T02:25:04.708Z,930.02
2018-08-03T02:25:16.728Z,930.05
2018-08-03T02:25:28.746Z,930.06
2018-08-03T02:25:41.804Z,930.04
2018-08-03T02:25:54.797Z,930.07
2018-08-03T02:26:07.837Z,930.06
2018-08-03T02:26:20.770Z,930.03
2018-08-03T02:26:33.249Z,930.06
2018-08-03T02:26:46.224Z,930.05
2018-08-03T02:26:58.257Z,930.05
2018-08-03T02:27:10.750Z,930.04
2018-08-03T02:27:23.266Z,930.07
2018-08-03T02:27:35.803Z,930.08
2018-08-03T02:27:47.866Z,930.08
2018-08-03T02:28:00.820Z,930.08
2018-08-03T02:28:13.801Z,930.1
2018-08-03T02:28:26.390Z,930.07
2018-08-03T02:28:39.434Z,930.06
2018-08-03T02:28:52.437Z,930.11
2018-08-03T02:29:04.923Z,930.05
2018-08-03T02:29:17.866Z,930.08
2018-08-03T02:29:30.328Z,930.1
2018-08-03T02:29:43.314Z,930.09
2018-08-03T02:29:56.297Z,930.11
2018-08-03T02:30:08.808Z,930.09
2018-08-03T02:30:21.770Z,930.12
2018-08-03T02:30:34.804Z,930.09
2018-08-03T02:30:47.759Z,930.11
2018-08-03T02:31:00.740Z,930.07
2018-08-03T02:31:13.729Z,930.08
2018-08-03T02:31:26.746Z,930.11
2018-08-03T02:31:39.730Z,930.03
2018-08-03T02:31:52.191Z,930.02
2018-08-03T02:32:04.764Z,930.04
2018-08-03T02:32:16.861Z,930.01
2018-08-03T02:32:29.817Z,930.03
2018-08-03T02:32:42.801Z,930.03
2018-08-03T02:32:55.877Z,930.08
2018-08-03T02:33:08.949Z,930.04
2018-08-03T02:33:21.925Z,930.05
2018-08-03T02:33:34.944Z,930.06
2018-08-03T02:33:47.927Z,930.06
2018-08-03T02:34:00.483Z,930.04
2018-08-03T02:34:12.958Z,930.04
2018-08-03T02:34:25.519Z,930.05
2018-08-03T02:34:38.473Z,930.03
2018-08-03T02:34:51.435Z,930.04
2018-08-03T02:35:03.516Z,930.01
2018-08-03T02:35:16.009Z,930.06
2018-08-03T02:35:28.551Z,930.05
2018-08-03T02:35:41.130Z,930.04
2018-08-03T02:35:53.628Z,930.05
2018-08-03T02:36:06.612Z,930.04
2018-08-03T02:36:19.178Z,930.05
2018-08-03T02:36:32.176Z,930.06
2018-08-03T02:36:44.667Z,930.02
2018-08-03T02:36:57.685Z,930.05
2018-08-03T02:37:10.714Z,930.02
2018-08-03T02:37:23.247Z,930.03
2018-08-03T02:37:36.208Z,930.03
2018-08-03T02:37:49.194Z,930.07
2018-08-03T02:38:02.186Z,930.05
2018-08-03T02:38:14.756Z,930.06